Time;durP1;ratioP1;P1;durP2;ratioP2;P2;SDS_P1;SDS_P2;PMS_P1;PMS_P2;Temp;Humidity;BMP_temperature;BMP_pressure;BME280_temperature;BME280_humidity;BME280_pressure;Samples;Min_cycle;Max_cycle;Signal;HPM_P1;HPM_P2
2023/01/10 00:03:45;;;;;;;3.17;2.95;;;;;;;;;;10290972;28;20253;-78
2023/01/10 00:08:46;;;;;;;7.95;3.13;;;;;;;;;;10279162;28;20280;-76
2023/01/10 00:13:47;;;;;;;3.50;2.55;;;;;;;;;;10289089;28;20240;-79
2023/01/10 00:18:48;;;;;;;8.38;2.47;;;;;;;;;;10309445;28;20217;-79
2023/01/10 00:23:49;;;;;;;2.80;1.90;;;;;;;;;;10309087;28;20236;-78
2023/01/10 00:28:51;;;;;;;2.63;2.03;;;;;;;;;;10304087;28;20263;-77
2023/01/10 00:33:52;;;;;;;2.60;2.08;;;;;;;;;;10304124;28;20251;-81
2023/01/10 00:38:53;;;;;;;2.35;2.15;;;;;;;;;;10311699;28;20216;-78
2023/01/10 00:43:57;;;;;;;3.53;2.22;;;;;;;;;;10309022;28;20222;-78
2023/01/10 00:48:59;;;;;;;2.42;2.33;;;;;;;;;;10279610;28;20213;-78
2023/01/10 00:54:00;;;;;;;3.47;2.38;;;;;;;;;;10307674;28;20605;-78
2023/01/10 00:59:01;;;;;;;4.60;2.28;;;;;;;;;;10301428;28;20304;-77
2023/01/10 01:04:02;;;;;;;9.38;2.97;;;;;;;;;;10305780;28;20304;-77
2023/01/10 01:09:03;;;;;;;7.50;3.15;;;;;;;;;;10302619;28;20709;-78
2023/01/10 01:14:04;;;;;;;7.30;3.20;;;;;;;;;;10304405;28;20602;-76
2023/01/10 01:19:05;;;;;;;3.58;2.90;;;;;;;;;;10289019;28;20220;-77
2023/01/10 01:24:06;;;;;;;2.83;2.72;;;;;;;;;;10297659;28;20240;-78
2023/01/10 01:29:07;;;;;;;5.13;2.80;;;;;;;;;;10298497;28;20771;-77
2023/01/10 01:34:08;;;;;;;3.85;3.20;;;;;;;;;;10297328;28;20213;-79
2023/01/10 01:39:09;;;;;;;4.95;2.85;;;;;;;;;;10304148;28;20227;-80
2023/01/10 01:44:15;;;;;;;4.75;3.38;;;;;;;;;;10284247;28;20297;-81
2023/01/10 01:49:19;;;;;;;6.35;2.72;;;;;;;;;;10305443;28;20228;-79
2023/01/10 01:54:20;;;;;;;8.55;3.00;;;;;;;;;;10304933;28;20248;-77
2023/01/10 01:59:27;;;;;;;4.57;3.83;;;;;;;;;;10286307;28;20700;-78
2023/01/10 02:04:31;;;;;;;6.97;2.90;;;;;;;;;;10305102;28;20995;-78
2023/01/10 02:09:47;;;;;;;5.65;3.13;;;;;;;;;;10303737;28;20221;-77
2023/01/10 02:14:49;;;;;;;5.43;2.97;;;;;;;;;;10293307;28;20209;-78
2023/01/10 02:19:53;;;;;;;5.82;3.30;;;;;;;;;;10296953;28;20744;-78
2023/01/10 02:24:54;;;;;;;6.22;3.42;;;;;;;;;;10298642;28;20794;-78
2023/01/10 02:30:08;;;;;;;4.57;2.92;;;;;;;;;;10287092;28;20221;-78
2023/01/10 02:35:15;;;;;;;4.03;3.13;;;;;;;;;;10299114;28;20224;-78
2023/01/10 02:40:22;;;;;;;8.60;3.05;;;;;;;;;;10300003;28;20738;-77
2023/01/10 02:45:28;;;;;;;5.10;3.63;;;;;;;;;;10301037;28;20217;-77
2023/01/10 02:50:29;;;;;;;6.78;3.15;;;;;;;;;;10301961;28;20237;-78
2023/01/10 02:55:40;;;;;;;8.35;3.33;;;;;;;;;;10290671;28;20217;-78
2023/01/10 03:00:57;;;;;;;4.10;2.90;;;;;;;;;;10300961;28;20705;-77
2023/01/10 03:06:06;;;;;;;2.97;2.55;;;;;;;;;;10292510;28;20209;-78
2023/01/10 03:11:08;;;;;;;8.05;3.53;;;;;;;;;;10302072;28;20217;-78
2023/01/10 03:16:12;;;;;;;3.10;2.90;;;;;;;;;;10289953;28;20209;-77
2023/01/10 03:21:13;;;;;;;5.28;3.22;;;;;;;;;;10301400;28;20610;-78
2023/01/10 03:26:15;;;;;;;8.43;4.05;;;;;;;;;;10300559;28;20221;-75
2023/01/10 03:31:18;;;;;;;3.75;3.45;;;;;;;;;;10301373;28;20724;-79
2023/01/10 03:36:22;;;;;;;10.10;3.80;;;;;;;;;;10287554;28;20720;-78
2023/01/10 03:41:34;;;;;;;8.60;3.78;;;;;;;;;;10296990;28;20217;-79
2023/01/10 03:46:37;;;;;;;3.70;2.95;;;;;;;;;;10285736;28;20900;-78
2023/01/10 03:51:39;;;;;;;6.60;3.35;;;;;;;;;;10303286;28;20252;-79
2023/01/10 03:56:44;;;;;;;4.65;3.33;;;;;;;;;;10285674;28;20216;-78
2023/01/10 04:01:45;;;;;;;6.10;3.25;;;;;;;;;;10302402;28;20484;-81
2023/01/10 04:06:46;;;;;;;3.63;3.33;;;;;;;;;;10307558;28;20324;-75
2023/01/10 04:11:47;;;;;;;4.35;3.33;;;;;;;;;;10310865;28;20866;-77
2023/01/10 04:16:48;;;;;;;4.90;3.30;;;;;;;;;;10309857;28;20233;-77
2023/01/10 04:21:49;;;;;;;5.47;3.50;;;;;;;;;;10306600;28;20229;-75
2023/01/10 04:26:51;;;;;;;4.38;3.97;;;;;;;;;;10290667;28;20221;-78
2023/01/10 04:31:52;;;;;;;4.13;3.53;;;;;;;;;;10309008;28;20259;-78
2023/01/10 04:36:53;;;;;;;7.72;3.33;;;;;;;;;;10304044;28;20225;-78
2023/01/10 04:41:54;;;;;;;6.22;3.97;;;;;;;;;;10302893;28;20204;-78
2023/01/10 04:46:55;;;;;;;6.22;3.75;;;;;;;;;;10294088;28;20228;-78
2023/01/10 04:51:56;;;;;;;5.38;3.65;;;;;;;;;;10312002;28;20209;-77
2023/01/10 04:56:57;;;;;;;4.05;3.65;;;;;;;;;;10302580;28;20603;-77
2023/01/10 05:01:58;;;;;;;3.95;3.65;;;;;;;;;;10292267;28;20237;-79
2023/01/10 05:06:59;;;;;;;5.07;3.83;;;;;;;;;;10306698;28;20279;-78
2023/01/10 05:12:01;;;;;;;5.88;3.80;;;;;;;;;;10290083;28;20308;-78
2023/01/10 05:17:02;;;;;;;6.53;3.67;;;;;;;;;;10299694;28;20312;-79
2023/01/10 05:22:03;;;;;;;5.28;3.92;;;;;;;;;;10299936;28;20248;-79
2023/01/10 05:27:04;;;;;;;5.65;3.58;;;;;;;;;;10298054;28;20235;-79
2023/01/10 05:32:05;;;;;;;5.90;3.80;;;;;;;;;;10303279;28;20326;-79
2023/01/10 05:37:06;;;;;;;4.40;2.95;;;;;;;;;;10296900;28;20227;-80
2023/01/10 05:42:07;;;;;;;3.22;2.47;;;;;;;;;;10293235;28;20221;-76
2023/01/10 05:47:08;;;;;;;2.17;1.80;;;;;;;;;;10293488;28;20217;-76
2023/01/10 05:52:09;;;;;;;1.80;1.70;;;;;;;;;;10297583;28;20233;-76
2023/01/10 05:57:10;;;;;;;4.68;2.10;;;;;;;;;;10291066;28;20221;-80
2023/01/10 06:02:12;;;;;;;5.30;1.92;;;;;;;;;;10275252;28;20256;-79
2023/01/10 06:07:13;;;;;;;3.47;1.70;;;;;;;;;;10287961;28;20259;-79
2023/01/10 06:12:14;;;;;;;1.33;1.20;;;;;;;;;;10295708;28;20767;-79
2023/01/10 06:17:15;;;;;;;3.70;2.38;;;;;;;;;;10284090;28;20218;-77
2023/01/10 06:22:16;;;;;;;2.72;1.60;;;;;;;;;;10289866;28;20232;-79
2023/01/10 06:27:17;;;;;;;4.63;1.85;;;;;;;;;;10298596;28;20217;-80
2023/01/10 06:32:18;;;;;;;2.10;1.92;;;;;;;;;;10309288;28;20360;-81
2023/01/10 06:37:19;;;;;;;2.47;2.10;;;;;;;;;;10301572;28;21084;-77
2023/01/10 06:42:20;;;;;;;2.17;1.98;;;;;;;;;;10302465;28;20307;-79
2023/01/10 06:47:22;;;;;;;2.47;1.88;;;;;;;;;;10302300;28;20205;-76
2023/01/10 06:52:23;;;;;;;1.27;1.23;;;;;;;;;;10285338;28;20584;-79
2023/01/10 06:57:24;;;;;;;1.45;1.35;;;;;;;;;;10302903;28;20214;-81
2023/01/10 07:02:25;;;;;;;1.30;1.05;;;;;;;;;;10283842;28;20220;-77
2023/01/10 07:07:26;;;;;;;4.43;1.58;;;;;;;;;;10304527;28;20216;-81
2023/01/10 07:12:27;;;;;;;1.98;1.77;;;;;;;;;;10314114;28;20274;-82
2023/01/10 07:17:29;;;;;;;4.35;2.28;;;;;;;;;;10304616;28;20260;-82
2023/01/10 07:22:30;;;;;;;3.92;1.80;;;;;;;;;;10306072;28;20307;-82
2023/01/10 07:27:31;;;;;;;3.65;1.83;;;;;;;;;;10320754;28;20216;-80
2023/01/10 07:32:33;;;;;;;5.82;1.98;;;;;;;;;;10313633;28;20216;-81
2023/01/10 07:37:34;;;;;;;3.47;1.98;;;;;;;;;;10300932;28;20656;-80
2023/01/10 07:42:35;;;;;;;5.70;1.60;;;;;;;;;;10312149;28;20259;-80
2023/01/10 07:47:36;;;;;;;11.90;1.58;;;;;;;;;;10312892;28;20217;-82
2023/01/10 07:52:37;;;;;;;5.13;1.13;;;;;;;;;;10314828;28;20312;-81
2023/01/10 07:57:38;;;;;;;2.28;1.05;;;;;;;;;;10305201;28;20607;-84
2023/01/10 08:02:39;;;;;;;3.08;1.48;;;;;;;;;;10310719;28;20215;-84
2023/01/10 08:07:40;;;;;;;5.20;1.30;;;;;;;;;;10321321;28;20238;-84
2023/01/10 08:12:42;;;;;;;1.70;1.08;;;;;;;;;;10304297;28;20213;-83
2023/01/10 08:17:43;;;;;;;4.72;1.63;;;;;;;;;;10323553;28;20212;-84
2023/01/10 08:22:44;;;;;;;1.35;1.20;;;;;;;;;;10328688;28;20804;-78
2023/01/10 08:27:45;;;;;;;6.28;1.08;;;;;;;;;;10327684;28;20568;-83
2023/01/10 08:32:46;;;;;;;5.00;1.10;;;;;;;;;;10320590;28;20209;-82
2023/01/10 08:37:47;;;;;;;3.53;0.90;;;;;;;;;;10324800;28;20221;-79
2023/01/10 08:42:48;;;;;;;8.25;1.30;;;;;;;;;;10317131;28;20964;-84
2023/01/10 08:47:49;;;;;;;3.85;1.50;;;;;;;;;;10327119;28;20328;-83
2023/01/10 08:52:51;;;;;;;7.50;1.00;;;;;;;;;;10306927;28;21742;-84
2023/01/10 08:57:52;;;;;;;3.55;0.98;;;;;;;;;;10304281;28;20343;-85
2023/01/10 09:02:53;;;;;;;8.10;1.40;;;;;;;;;;10315351;28;20220;-77
2023/01/10 09:07:58;;;;;;;1.90;1.35;;;;;;;;;;10318434;28;20691;-84
2023/01/10 09:13:00;;;;;;;5.15;1.52;;;;;;;;;;10340420;28;20415;-85
2023/01/10 09:18:05;;;;;;;3.42;1.50;;;;;;;;;;10326795;28;20271;-84
2023/01/10 09:23:07;;;;;;;4.60;1.73;;;;;;;;;;10317415;28;20251;-85
2023/01/10 09:28:08;;;;;;;3.38;1.60;;;;;;;;;;10311832;28;20221;-82
2023/01/10 09:33:10;;;;;;;1.60;1.50;;;;;;;;;;10314232;28;20252;-83
2023/01/10 09:38:13;;;;;;;5.68;1.60;;;;;;;;;;10309382;28;20216;-81
2023/01/10 09:43:33;;;;;;;4.80;1.63;;;;;;;;;;10317644;28;20233;-82
2023/01/10 09:48:51;;;;;;;2.10;1.75;;;;;;;;;;10299928;28;20221;-76
2023/01/10 09:53:55;;;;;;;4.47;1.70;;;;;;;;;;10295701;28;20782;-80
2023/01/10 09:58:57;;;;;;;5.43;2.38;;;;;;;;;;10304293;28;20344;-83
2023/01/10 10:04:02;;;;;;;5.32;2.65;;;;;;;;;;10310713;28;20223;-82
2023/01/10 10:09:03;;;;;;;6.88;3.08;;;;;;;;;;10273775;28;20215;-82
2023/01/10 10:14:04;;;;;;;8.43;2.63;;;;;;;;;;10299166;28;20213;-81
2023/01/10 10:19:16;;;;;;;3.28;2.97;;;;;;;;;;10303955;28;20218;-81
2023/01/10 10:24:36;;;;;;;5.18;1.98;;;;;;;;;;10308485;28;20220;-82
2023/01/10 10:29:48;;;;;;;5.80;1.98;;;;;;;;;;10307725;28;20768;-80
2023/01/10 10:34:52;;;;;;;3.30;2.33;;;;;;;;;;10284234;28;20243;-80
2023/01/10 10:39:55;;;;;;;4.28;1.90;;;;;;;;;;10292102;28;20991;-80
2023/01/10 10:44:59;;;;;;;2.60;2.40;;;;;;;;;;10291504;28;20244;-80
2023/01/10 10:50:15;;;;;;;4.05;1.75;;;;;;;;;;10298597;28;20233;-81
2023/01/10 10:55:20;;;;;;;5.50;1.98;;;;;;;;;;10273511;28;20216;-78
2023/01/10 11:00:22;;;;;;;3.35;2.15;;;;;;;;;;10295246;28;20775;-76
2023/01/10 11:05:30;;;;;;;5.07;2.95;;;;;;;;;;10290233;28;20221;-77
2023/01/10 11:10:35;;;;;;;3.85;2.08;;;;;;;;;;10296795;28;20228;-79
2023/01/10 11:15:38;;;;;;;2.80;2.17;;;;;;;;;;10294483;28;20278;-80
2023/01/10 11:20:57;;;;;;;6.40;2.08;;;;;;;;;;10296171;28;20251;-78
2023/01/10 11:25:58;;;;;;;5.28;2.35;;;;;;;;;;10307822;28;20212;-75
2023/01/10 11:31:00;;;;;;;7.45;2.15;;;;;;;;;;10302284;28;20244;-79
2023/01/10 11:36:06;;;;;;;3.80;2.15;;;;;;;;;;10304137;28;20267;-79
2023/01/10 11:41:19;;;;;;;1.33;1.30;;;;;;;;;;10290120;28;20221;-79
2023/01/10 11:46:23;;;;;;;4.53;1.35;;;;;;;;;;10288702;28;20245;-79
2023/01/10 11:51:26;;;;;;;6.13;1.05;;;;;;;;;;10304453;28;20224;-79
2023/01/10 11:56:29;;;;;;;1.35;1.17;;;;;;;;;;10292817;28;20217;-80
2023/01/10 12:01:30;;;;;;;3.35;1.08;;;;;;;;;;10303946;28;20221;-80
2023/01/10 12:06:32;;;;;;;4.60;1.35;;;;;;;;;;10280490;28;20221;-78
2023/01/10 12:11:34;;;;;;;5.63;1.30;;;;;;;;;;10282283;28;20228;-77
2023/01/10 12:16:36;;;;;;;2.35;1.42;;;;;;;;;;10304300;28;20216;-79
2023/01/10 12:21:41;;;;;;;3.42;1.20;;;;;;;;;;10287528;28;20252;-78
2023/01/10 12:26:43;;;;;;;3.80;1.27;;;;;;;;;;10306105;28;20294;-78
2023/01/10 12:31:44;;;;;;;3.83;0.98;;;;;;;;;;10306697;28;20212;-81
2023/01/10 12:37:05;;;;;;;5.60;1.83;;;;;;;;;;10295401;28;20312;-77
2023/01/10 12:47:38;;;;;;;4.00;1.45;;;;;;;;;;10309500;28;20213;-80
2023/01/10 12:52:44;;;;;;;11.10;1.63;;;;;;;;;;10305988;28;20940;-81
2023/01/10 12:57:55;;;;;;;1.88;1.08;;;;;;;;;;10286210;28;20441;-80
2023/01/10 13:02:58;;;;;;;5.68;1.33;;;;;;;;;;10306325;28;20217;-80
2023/01/10 13:08:02;;;;;;;5.65;1.35;;;;;;;;;;10301963;28;20221;-81
2023/01/10 13:13:09;;;;;;;6.85;1.65;;;;;;;;;;10304206;28;20205;-79
2023/01/10 13:18:18;;;;;;;6.65;1.67;;;;;;;;;;10304498;28;20224;-78
2023/01/10 13:23:33;;;;;;;2.05;1.10;;;;;;;;;;10297001;28;20674;-77
2023/01/10 13:28:35;;;;;;;5.43;1.25;;;;;;;;;;10308657;28;20232;-81
2023/01/10 13:33:45;;;;;;;1.20;1.10;;;;;;;;;;10306847;28;20217;-79
2023/01/10 13:38:52;;;;;;;2.67;0.98;;;;;;;;;;10307766;28;20316;-78
2023/01/10 13:44:01;;;;;;;3.80;1.23;;;;;;;;;;10290263;28;20240;-73
2023/01/10 13:49:02;;;;;;;2.10;0.85;;;;;;;;;;10291271;28;20229;-80
2023/01/10 13:54:15;;;;;;;3.13;1.00;;;;;;;;;;10298711;28;20212;-82
2023/01/10 14:04:47;;;;;;;3.60;1.40;;;;;;;;;;10305712;28;20228;-76
2023/01/10 14:09:49;;;;;;;1.80;0.90;;;;;;;;;;10301480;28;20824;-80
2023/01/10 14:14:55;;;;;;;3.10;0.93;;;;;;;;;;10300908;28;20221;-81
2023/01/10 14:20:14;;;;;;;1.75;1.05;;;;;;;;;;10306001;28;20294;-82
2023/01/10 14:25:18;;;;;;;3.28;0.98;;;;;;;;;;10297542;28;20441;-78
2023/01/10 14:30:33;;;;;;;4.43;1.20;;;;;;;;;;10300141;28;20216;-81
2023/01/10 14:35:38;;;;;;;3.72;1.33;;;;;;;;;;10300915;28;20219;-79
2023/01/10 14:40:43;;;;;;;3.95;1.05;;;;;;;;;;10302369;28;20236;-79
2023/01/10 14:45:49;;;;;;;1.25;1.08;;;;;;;;;;10296730;28;20611;-79
2023/01/10 14:50:51;;;;;;;4.30;1.13;;;;;;;;;;10273487;28;20234;-76
2023/01/10 14:55:52;;;;;;;4.05;0.85;;;;;;;;;;10297838;28;20225;-78
2023/01/10 15:00:54;;;;;;;1.38;1.20;;;;;;;;;;10296808;28;20216;-79
2023/01/10 15:05:56;;;;;;;5.93;1.10;;;;;;;;;;10292775;28;20220;-78
2023/01/10 15:11:03;;;;;;;1.30;1.20;;;;;;;;;;10290888;28;20231;-77
2023/01/10 15:16:06;;;;;;;1.40;0.95;;;;;;;;;;10303234;28;20228;-82
2023/01/10 15:21:10;;;;;;;2.38;1.10;;;;;;;;;;10318396;28;20237;-85
2023/01/10 15:26:15;;;;;;;4.55;1.45;;;;;;;;;;10299991;28;20710;-76
2023/01/10 15:31:16;;;;;;;1.90;1.80;;;;;;;;;;10296104;28;20741;-79
2023/01/10 15:36:19;;;;;;;1.77;1.40;;;;;;;;;;10301871;28;20228;-79
2023/01/10 15:41:21;;;;;;;7.78;2.03;;;;;;;;;;10293583;28;20249;-76
2023/01/10 15:46:25;;;;;;;3.33;2.40;;;;;;;;;;10293585;28;20223;-76
2023/01/10 15:51:32;;;;;;;3.78;1.67;;;;;;;;;;10271988;28;20239;-80
2023/01/10 15:56:36;;;;;;;2.05;1.10;;;;;;;;;;10302723;28;20208;-80
2023/01/10 16:01:37;;;;;;;4.93;1.80;;;;;;;;;;10296563;28;20217;-79
2023/01/10 16:06:38;;;;;;;1.95;1.85;;;;;;;;;;10296179;28;20224;-81
2023/01/10 16:17:06;;;;;;;4.65;1.80;;;;;;;;;;10292357;28;20313;-78
2023/01/10 16:22:07;;;;;;;5.65;2.00;;;;;;;;;;10268592;28;20237;-80
2023/01/10 16:27:09;;;;;;;3.83;1.88;;;;;;;;;;10263397;28;20229;-79
2023/01/10 16:32:13;;;;;;;3.10;1.90;;;;;;;;;;10244837;28;20276;-79
2023/01/10 16:37:14;;;;;;;4.18;1.65;;;;;;;;;;10253550;28;20222;-79
2023/01/10 16:47:35;;;;;;;5.97;4.30;;;;;;;;;;10252348;28;20254;-78
2023/01/10 16:52:36;;;;;;;1.88;1.20;;;;;;;;;;10249119;28;20262;-77
2023/01/10 16:57:37;;;;;;;4.45;1.85;;;;;;;;;;10240232;28;20221;-77
2023/01/10 17:02:39;;;;;;;2.30;2.08;;;;;;;;;;10249631;28;20712;-77
2023/01/10 17:07:40;;;;;;;2.25;1.55;;;;;;;;;;10249432;28;20331;-78
2023/01/10 17:12:41;;;;;;;4.30;3.05;;;;;;;;;;10262946;28;20213;-79
2023/01/10 17:17:43;;;;;;;4.65;2.30;;;;;;;;;;10260968;28;20268;-81
2023/01/10 17:22:44;;;;;;;8.40;3.78;;;;;;;;;;10273739;28;20256;-79
2023/01/10 17:27:46;;;;;;;6.68;1.92;;;;;;;;;;10302664;28;20774;-79
2023/01/10 17:32:47;;;;;;;4.75;1.48;;;;;;;;;;10310935;28;20204;-81
2023/01/10 17:37:48;;;;;;;5.00;1.98;;;;;;;;;;10299982;28;20210;-79
2023/01/10 17:42:49;;;;;;;2.08;1.13;;;;;;;;;;10319761;28;20272;-78
2023/01/10 17:47:51;;;;;;;5.00;2.45;;;;;;;;;;10300489;28;20327;-80
2023/01/10 17:52:52;;;;;;;2.10;1.80;;;;;;;;;;10297160;28;20213;-81
2023/01/10 17:57:54;;;;;;;5.75;1.52;;;;;;;;;;10292883;28;20217;-79
2023/01/10 18:02:55;;;;;;;5.65;1.48;;;;;;;;;;10294476;28;21411;-81
2023/01/10 18:07:56;;;;;;;5.22;1.65;;;;;;;;;;10316684;28;20221;-82
2023/01/10 18:12:57;;;;;;;2.58;0.80;;;;;;;;;;10295626;28;20212;-82
2023/01/10 18:17:58;;;;;;;4.25;1.45;;;;;;;;;;10302284;28;20720;-81
2023/01/10 18:28:19;;;;;;;7.07;2.40;;;;;;;;;;10298611;28;20216;-81
2023/01/10 18:33:22;;;;;;;5.97;3.58;;;;;;;;;;10299066;28;20239;-80
2023/01/10 18:38:23;;;;;;;8.02;2.85;;;;;;;;;;10299240;28;20285;-86
2023/01/10 18:43:24;;;;;;;4.88;2.25;;;;;;;;;;10289342;28;20223;-80
2023/01/10 18:48:26;;;;;;;3.50;2.10;;;;;;;;;;10302221;28;20251;-79
2023/01/10 18:53:27;;;;;;;7.40;1.83;;;;;;;;;;10313748;28;20218;-84
2023/01/10 18:58:31;;;;;;;2.58;1.52;;;;;;;;;;10296335;28;20941;-71
2023/01/10 19:03:32;;;;;;;4.85;1.52;;;;;;;;;;10290982;28;20212;-72
2023/01/10 19:08:35;;;;;;;2.67;0.90;;;;;;;;;;10284788;28;20686;-83
2023/01/10 19:13:36;;;;;;;6.70;1.20;;;;;;;;;;10285086;28;20742;-81
2023/01/10 19:18:37;;;;;;;5.72;1.35;;;;;;;;;;10265002;28;20248;-81
2023/01/10 19:23:38;;;;;;;6.90;1.20;;;;;;;;;;10287896;28;20231;-78
2023/01/10 19:28:40;;;;;;;4.22;1.13;;;;;;;;;;10291057;28;20911;-72
2023/01/10 19:33:42;;;;;;;6.85;1.38;;;;;;;;;;10294919;28;20224;-77
2023/01/10 19:38:43;;;;;;;6.35;1.40;;;;;;;;;;10290548;28;21069;-79
2023/01/10 19:43:44;;;;;;;2.60;1.52;;;;;;;;;;10301489;28;20220;-80
2023/01/10 19:48:46;;;;;;;2.78;1.30;;;;;;;;;;10298560;28;20224;-77
2023/01/10 19:53:47;;;;;;;7.82;1.10;;;;;;;;;;10296432;28;20697;-82
2023/01/10 19:58:49;;;;;;;6.25;0.93;;;;;;;;;;10309515;28;20216;-75
2023/01/10 20:03:50;;;;;;;7.95;1.20;;;;;;;;;;10296930;28;20225;-79
2023/01/10 20:08:52;;;;;;;4.82;1.27;;;;;;;;;;10295170;28;20275;-80
2023/01/10 20:13:53;;;;;;;3.67;0.88;;;;;;;;;;10293479;28;20995;-78
2023/01/10 20:18:54;;;;;;;3.78;1.40;;;;;;;;;;10292704;28;20229;-76
2023/01/10 20:23:55;;;;;;;4.93;1.63;;;;;;;;;;10291308;28;21982;-74
2023/01/10 20:29:00;;;;;;;4.40;1.55;;;;;;;;;;10291041;28;20235;-81
2023/01/10 20:34:01;;;;;;;1.58;0.95;;;;;;;;;;10291625;28;20217;-83
2023/01/10 20:39:03;;;;;;;3.67;1.25;;;;;;;;;;10294171;28;20213;-81
2023/01/10 20:44:04;;;;;;;4.75;1.40;;;;;;;;;;10284112;28;20228;-88
2023/01/10 20:49:05;;;;;;;5.85;1.50;;;;;;;;;;10297688;28;20248;-85
2023/01/10 20:54:07;;;;;;;4.68;1.20;;;;;;;;;;10315633;28;20236;-85
2023/01/10 20:59:08;;;;;;;3.38;1.35;;;;;;;;;;10321544;28;20719;-85
2023/01/10 21:04:09;;;;;;;1.67;1.00;;;;;;;;;;10321753;28;20276;-86
2023/01/10 21:09:11;;;;;;;1.83;1.00;;;;;;;;;;10324982;28;20289;-86
2023/01/10 21:14:12;;;;;;;4.15;1.40;;;;;;;;;;10303708;28;20389;-86
2023/01/10 21:19:14;;;;;;;6.15;1.00;;;;;;;;;;10323913;28;20248;-79
2023/01/10 21:24:15;;;;;;;3.63;1.08;;;;;;;;;;10317935;28;20238;-83
2023/01/10 21:29:16;;;;;;;3.58;1.10;;;;;;;;;;10311653;28;20220;-87
2023/01/10 21:34:18;;;;;;;2.55;1.30;;;;;;;;;;10324746;28;20244;-82
2023/01/10 21:39:19;;;;;;;5.78;1.08;;;;;;;;;;10319647;28;20209;-85
2023/01/10 21:44:20;;;;;;;5.78;1.20;;;;;;;;;;10313154;28;20268;-86
2023/01/10 21:49:21;;;;;;;6.70;1.73;;;;;;;;;;10322225;28;20216;-82
2023/01/10 21:54:22;;;;;;;1.33;1.10;;;;;;;;;;10320239;28;20209;-86
2023/01/10 21:59:24;;;;;;;1.70;0.85;;;;;;;;;;10304450;28;20213;-88
2023/01/10 22:04:25;;;;;;;8.93;1.50;;;;;;;;;;10321837;28;20691;-85
2023/01/10 22:09:28;;;;;;;0.98;0.50;;;;;;;;;;10318677;28;20216;-84
2023/01/10 22:14:29;;;;;;;4.55;1.08;;;;;;;;;;10319045;28;20336;-86
2023/01/10 22:19:30;;;;;;;2.47;1.00;;;;;;;;;;10320234;28;20221;-85
2023/01/10 22:24:31;;;;;;;5.95;1.05;;;;;;;;;;10319940;28;20224;-86
2023/01/10 22:29:32;;;;;;;2.33;1.00;;;;;;;;;;10316712;28;20217;-87
2023/01/10 22:34:34;;;;;;;2.83;1.20;;;;;;;;;;10318810;28;21847;-86
2023/01/10 22:39:35;;;;;;;3.17;1.02;;;;;;;;;;10319624;28;20227;-81
2023/01/10 22:44:36;;;;;;;3.30;1.25;;;;;;;;;;10318491;28;20216;-83
2023/01/10 22:49:38;;;;;;;6.53;1.30;;;;;;;;;;10320983;28;20223;-77
2023/01/10 22:54:39;;;;;;;4.97;1.00;;;;;;;;;;10311193;28;20787;-83
2023/01/10 22:59:40;;;;;;;3.25;0.63;;;;;;;;;;10298466;28;20204;-87
2023/01/10 23:04:41;;;;;;;1.42;0.65;;;;;;;;;;10319369;28;20240;-86
2023/01/10 23:09:42;;;;;;;1.38;1.15;;;;;;;;;;10318642;28;20248;-91
2023/01/10 23:14:43;;;;;;;3.85;0.90;;;;;;;;;;10323863;28;20243;-91
2023/01/10 23:19:44;;;;;;;3.50;0.65;;;;;;;;;;10326846;28;20241;-91
2023/01/10 23:24:45;;;;;;;5.95;1.25;;;;;;;;;;10324865;28;20243;-88
2023/01/10 23:29:46;;;;;;;3.95;0.82;;;;;;;;;;10309942;28;20212;-89
2023/01/10 23:34:47;;;;;;;4.85;0.60;;;;;;;;;;10321523;28;20200;-89
2023/01/10 23:39:48;;;;;;;0.30;0.30;;;;;;;;;;10321533;28;20244;-86
2023/01/10 23:44:49;;;;;;;2.55;0.60;;;;;;;;;;10319939;28;20212;-88
2023/01/10 23:49:50;;;;;;;2.33;0.45;;;;;;;;;;10320899;28;20319;-90
2023/01/10 23:54:52;;;;;;;1.50;0.70;;;;;;;;;;10319353;28;20276;-88
2023/01/10 23:59:53;;;;;;;2.13;0.52;;;;;;;;;;10307967;28;20284;-85
